sensor_id;sensor_type;location;lat;lon;timestamp;temperature;humidity
6114;DHT22;3087;48.392;10.836;2022-10-17T00:01:04;17.00;99.90
6114;DHT22;3087;48.392;10.836;2022-10-17T00:03:30;17.00;99.90
6114;DHT22;3087;48.392;10.836;2022-10-17T00:08:22;17.00;99.90
6114;DHT22;3087;48.392;10.836;2022-10-17T00:10:57;16.90;99.90
6114;DHT22;3087;48.392;10.836;2022-10-17T00:13:23;16.90;99.90
6114;DHT22;3087;48.392;10.836;2022-10-17T00:18:15;16.90;99.90
6114;DHT22;3087;48.392;10.836;2022-10-17T00:20:41;16.80;99.90
6114;DHT22;3087;48.392;10.836;2022-10-17T00:23:06;16.80;99.90
6114;DHT22;3087;48.392;10.836;2022-10-17T00:25:32;16.80;99.90
6114;DHT22;3087;48.392;10.836;2022-10-17T00:27:58;16.80;99.90
6114;DHT22;3087;48.392;10.836;2022-10-17T00:30:23;16.70;99.90
6114;DHT22;3087;48.392;10.836;2022-10-17T00:32:49;16.70;99.90
6114;DHT22;3087;48.392;10.836;2022-10-17T00:37:41;16.70;99.90
6114;DHT22;3087;48.392;10.836;2022-10-17T00:40:07;16.60;99.90
6114;DHT22;3087;48.392;10.836;2022-10-17T00:42:33;16.60;99.90
6114;DHT22;3087;48.392;10.836;2022-10-17T00:52:23;16.60;99.90
6114;DHT22;3087;48.392;10.836;2022-10-17T00:54:59;16.60;99.90
6114;DHT22;3087;48.392;10.836;2022-10-17T00:57:27;16.50;99.90
6114;DHT22;3087;48.392;10.836;2022-10-17T00:59:56;16.40;99.90
6114;DHT22;3087;48.392;10.836;2022-10-17T01:02:23;16.40;99.90
6114;DHT22;3087;48.392;10.836;2022-10-17T01:04:50;16.40;99.90
6114;DHT22;3087;48.392;10.836;2022-10-17T01:09:46;16.40;99.90
6114;DHT22;3087;48.392;10.836;2022-10-17T01:13:05;16.30;99.90
6114;DHT22;3087;48.392;10.836;2022-10-17T01:18:09;16.30;99.90
6114;DHT22;3087;48.392;10.836;2022-10-17T01:34:22;16.10;99.90
6114;DHT22;3087;48.392;10.836;2022-10-17T01:39:43;16.10;99.90
6114;DHT22;3087;48.392;10.836;2022-10-17T01:45:20;15.90;99.90
6114;DHT22;3087;48.392;10.836;2022-10-17T01:47:50;15.90;99.90
6114;DHT22;3087;48.392;10.836;2022-10-17T01:50:30;15.90;99.90
6114;DHT22;3087;48.392;10.836;2022-10-17T01:53:06;15.80;99.90
6114;DHT22;3087;48.392;10.836;2022-10-17T01:55:36;15.80;99.90
6114;DHT22;3087;48.392;10.836;2022-10-17T01:58:09;15.80;99.90
6114;DHT22;3087;48.392;10.836;2022-10-17T02:00:37;15.80;99.90
6114;DHT22;3087;48.392;10.836;2022-10-17T02:03:06;15.80;99.90
6114;DHT22;3087;48.392;10.836;2022-10-17T02:05:40;15.80;99.90
6114;DHT22;3087;48.392;10.836;2022-10-17T02:08:07;15.70;99.90
6114;DHT22;3087;48.392;10.836;2022-10-17T02:10:44;15.70;99.90
6114;DHT22;3087;48.392;10.836;2022-10-17T02:13:33;15.70;99.90
6114;DHT22;3087;48.392;10.836;2022-10-17T02:29:29;15.60;99.90
6114;DHT22;3087;48.392;10.836;2022-10-17T02:32:03;15.60;99.90
6114;DHT22;3087;48.392;10.836;2022-10-17T02:37:01;15.40;99.90
6114;DHT22;3087;48.392;10.836;2022-10-17T02:39:30;15.30;99.90
6114;DHT22;3087;48.392;10.836;2022-10-17T02:42:01;15.20;99.90
6114;DHT22;3087;48.392;10.836;2022-10-17T02:44:27;14.90;99.90
6114;DHT22;3087;48.392;10.836;2022-10-17T02:47:06;14.90;99.90
6114;DHT22;3087;48.392;10.836;2022-10-17T02:49:37;15.00;99.90
6114;DHT22;3087;48.392;10.836;2022-10-17T02:52:10;15.00;99.90
6114;DHT22;3087;48.392;10.836;2022-10-17T02:54:45;15.10;99.90
6114;DHT22;3087;48.392;10.836;2022-10-17T02:57:15;15.10;99.90
6114;DHT22;3087;48.392;10.836;2022-10-17T02:59:43;15.10;99.90
6114;DHT22;3087;48.392;10.836;2022-10-17T03:04:36;14.80;99.90
6114;DHT22;3087;48.392;10.836;2022-10-17T03:07:02;14.80;99.90
6114;DHT22;3087;48.392;10.836;2022-10-17T03:09:27;14.80;99.90
6114;DHT22;3087;48.392;10.836;2022-10-17T03:14:19;14.90;99.90
6114;DHT22;3087;48.392;10.836;2022-10-17T03:16:45;15.00;99.90
6114;DHT22;3087;48.392;10.836;2022-10-17T03:21:37;14.90;99.90
6114;DHT22;3087;48.392;10.836;2022-10-17T03:24:03;15.00;99.90
6114;DHT22;3087;48.392;10.836;2022-10-17T03:28:55;15.00;99.90
6114;DHT22;3087;48.392;10.836;2022-10-17T03:36:16;14.90;99.90
6114;DHT22;3087;48.392;10.836;2022-10-17T03:38:42;15.00;99.90
6114;DHT22;3087;48.392;10.836;2022-10-17T03:41:09;15.00;99.90
6114;DHT22;3087;48.392;10.836;2022-10-17T03:43:34;15.00;99.90
6114;DHT22;3087;48.392;10.836;2022-10-17T03:48:28;15.00;99.90
6114;DHT22;3087;48.392;10.836;2022-10-17T03:51:06;15.00;99.90
6114;DHT22;3087;48.392;10.836;2022-10-17T03:53:32;14.90;99.90
6114;DHT22;3087;48.392;10.836;2022-10-17T03:56:29;14.90;99.90
6114;DHT22;3087;48.392;10.836;2022-10-17T03:58:54;14.80;99.90
6114;DHT22;3087;48.392;10.836;2022-10-17T04:01:21;14.60;99.90
6114;DHT22;3087;48.392;10.836;2022-10-17T04:03:51;14.50;99.90
6114;DHT22;3087;48.392;10.836;2022-10-17T04:06:18;14.30;99.90
6114;DHT22;3087;48.392;10.836;2022-10-17T04:11:13;14.40;99.90
6114;DHT22;3087;48.392;10.836;2022-10-17T04:13:39;14.50;99.90
6114;DHT22;3087;48.392;10.836;2022-10-17T04:16:07;14.50;99.90
6114;DHT22;3087;48.392;10.836;2022-10-17T04:18:34;14.60;99.90
6114;DHT22;3087;48.392;10.836;2022-10-17T04:21:01;14.60;99.90
6114;DHT22;3087;48.392;10.836;2022-10-17T04:23:27;14.70;99.90
6114;DHT22;3087;48.392;10.836;2022-10-17T04:25:57;14.70;99.90
6114;DHT22;3087;48.392;10.836;2022-10-17T04:28:24;14.70;99.90
6114;DHT22;3087;48.392;10.836;2022-10-17T04:31:03;14.80;99.90
6114;DHT22;3087;48.392;10.836;2022-10-17T04:33:32;14.80;99.90
6114;DHT22;3087;48.392;10.836;2022-10-17T04:36:03;14.80;99.90
6114;DHT22;3087;48.392;10.836;2022-10-17T04:38:29;14.80;99.90
6114;DHT22;3087;48.392;10.836;2022-10-17T04:40:59;14.70;99.90
6114;DHT22;3087;48.392;10.836;2022-10-17T04:43:28;14.70;99.90
6114;DHT22;3087;48.392;10.836;2022-10-17T04:45:53;14.70;99.90
6114;DHT22;3087;48.392;10.836;2022-10-17T04:48:21;14.70;99.90
6114;DHT22;3087;48.392;10.836;2022-10-17T04:50:54;14.60;99.90
6114;DHT22;3087;48.392;10.836;2022-10-17T04:53:20;14.50;99.90
6114;DHT22;3087;48.392;10.836;2022-10-17T04:55:46;14.30;99.90
6114;DHT22;3087;48.392;10.836;2022-10-17T04:58:11;14.20;99.90
6114;DHT22;3087;48.392;10.836;2022-10-17T05:00:37;14.10;99.90
6114;DHT22;3087;48.392;10.836;2022-10-17T05:07:54;14.10;99.90
6114;DHT22;3087;48.392;10.836;2022-10-17T05:10:20;14.20;99.90
6114;DHT22;3087;48.392;10.836;2022-10-17T05:12:49;14.20;99.90
6114;DHT22;3087;48.392;10.836;2022-10-17T05:15:15;14.20;99.90
6114;DHT22;3087;48.392;10.836;2022-10-17T05:29:51;14.30;99.90
6114;DHT22;3087;48.392;10.836;2022-10-17T05:34:43;14.20;99.90
6114;DHT22;3087;48.392;10.836;2022-10-17T05:37:09;14.30;99.90
6114;DHT22;3087;48.392;10.836;2022-10-17T05:39:34;14.40;99.90
6114;DHT22;3087;48.392;10.836;2022-10-17T05:42:00;14.30;99.90
6114;DHT22;3087;48.392;10.836;2022-10-17T05:44:25;14.30;99.90
6114;DHT22;3087;48.392;10.836;2022-10-17T05:46:51;14.40;99.90
6114;DHT22;3087;48.392;10.836;2022-10-17T05:49:17;14.40;99.90
6114;DHT22;3087;48.392;10.836;2022-10-17T05:51:42;14.40;99.90
6114;DHT22;3087;48.392;10.836;2022-10-17T05:54:08;14.40;99.90
6114;DHT22;3087;48.392;10.836;2022-10-17T05:56:34;14.40;99.90
6114;DHT22;3087;48.392;10.836;2022-10-17T05:59:00;14.40;99.90
6114;DHT22;3087;48.392;10.836;2022-10-17T06:03:52;14.40;99.90
6114;DHT22;3087;48.392;10.836;2022-10-17T06:06:18;14.40;99.90
6114;DHT22;3087;48.392;10.836;2022-10-17T06:08:44;14.40;99.90
6114;DHT22;3087;48.392;10.836;2022-10-17T06:11:10;14.30;99.90
6114;DHT22;3087;48.392;10.836;2022-10-17T06:13:37;14.30;99.90
6114;DHT22;3087;48.392;10.836;2022-10-17T06:18:28;14.40;99.90
6114;DHT22;3087;48.392;10.836;2022-10-17T06:21:04;14.40;99.90
6114;DHT22;3087;48.392;10.836;2022-10-17T06:26:00;14.40;99.90
6114;DHT22;3087;48.392;10.836;2022-10-17T06:33:18;14.50;99.90
6114;DHT22;3087;48.392;10.836;2022-10-17T06:35:52;14.60;99.90
6114;DHT22;3087;48.392;10.836;2022-10-17T06:45:39;14.60;99.90
6114;DHT22;3087;48.392;10.836;2022-10-17T06:48:06;14.70;99.90
6114;DHT22;3087;48.392;10.836;2022-10-17T06:52:58;14.80;99.90
6114;DHT22;3087;48.392;10.836;2022-10-17T07:00:16;14.90;99.90
6114;DHT22;3087;48.392;10.836;2022-10-17T07:02:42;15.00;99.90
6114;DHT22;3087;48.392;10.836;2022-10-17T07:05:08;15.10;99.90
6114;DHT22;3087;48.392;10.836;2022-10-17T07:07:34;15.10;99.90
6114;DHT22;3087;48.392;10.836;2022-10-17T07:17:20;15.30;99.90
6114;DHT22;3087;48.392;10.836;2022-10-17T07:22:11;15.40;99.90
6114;DHT22;3087;48.392;10.836;2022-10-17T07:24:37;15.40;99.90
6114;DHT22;3087;48.392;10.836;2022-10-17T07:27:03;15.40;99.90
6114;DHT22;3087;48.392;10.836;2022-10-17T07:29:29;15.40;99.90
6114;DHT22;3087;48.392;10.836;2022-10-17T07:34:20;15.40;99.90
6114;DHT22;3087;48.392;10.836;2022-10-17T07:41:38;15.40;99.90
6114;DHT22;3087;48.392;10.836;2022-10-17T07:44:04;15.40;99.90
6114;DHT22;3087;48.392;10.836;2022-10-17T07:46:30;15.40;99.90
6114;DHT22;3087;48.392;10.836;2022-10-17T07:51:21;15.80;99.90
6114;DHT22;3087;48.392;10.836;2022-10-17T07:58:39;16.10;99.90
6114;DHT22;3087;48.392;10.836;2022-10-17T08:01:09;16.20;99.90
6114;DHT22;3087;48.392;10.836;2022-10-17T08:06:04;16.40;99.90
6114;DHT22;3087;48.392;10.836;2022-10-17T08:08:30;16.50;99.90
6114;DHT22;3087;48.392;10.836;2022-10-17T08:11:07;16.60;99.90
6114;DHT22;3087;48.392;10.836;2022-10-17T08:13:33;16.70;99.90
6114;DHT22;3087;48.392;10.836;2022-10-17T08:16:01;16.80;99.90
6114;DHT22;3087;48.392;10.836;2022-10-17T08:18:27;16.90;99.90
6114;DHT22;3087;48.392;10.836;2022-10-17T08:20:53;17.00;99.90
6114;DHT22;3087;48.392;10.836;2022-10-17T08:28:10;17.30;99.90
6114;DHT22;3087;48.392;10.836;2022-10-17T08:30:36;17.40;99.90
6114;DHT22;3087;48.392;10.836;2022-10-17T08:33:02;17.50;99.90
6114;DHT22;3087;48.392;10.836;2022-10-17T08:35:28;17.60;99.90
6114;DHT22;3087;48.392;10.836;2022-10-17T08:37:53;17.70;99.90
6114;DHT22;3087;48.392;10.836;2022-10-17T08:40:27;17.80;99.90
6114;DHT22;3087;48.392;10.836;2022-10-17T08:46:02;17.80;99.90
6114;DHT22;3087;48.392;10.836;2022-10-17T08:48:32;17.90;99.90
6114;DHT22;3087;48.392;10.836;2022-10-17T08:51:04;18.00;99.90
6114;DHT22;3087;48.392;10.836;2022-10-17T08:53:36;18.00;99.90
6114;DHT22;3087;48.392;10.836;2022-10-17T08:56:25;18.00;99.90
6114;DHT22;3087;48.392;10.836;2022-10-17T08:58:50;18.00;99.90
6114;DHT22;3087;48.392;10.836;2022-10-17T09:02:02;15.90;99.90
6114;DHT22;3087;48.392;10.836;2022-10-17T09:12:16;18.60;99.90
6114;DHT22;3087;48.392;10.836;2022-10-17T09:17:47;18.80;99.90
6114;DHT22;3087;48.392;10.836;2022-10-17T09:23:09;18.80;99.90
6114;DHT22;3087;48.392;10.836;2022-10-17T09:25:47;18.90;99.90
6114;DHT22;3087;48.392;10.836;2022-10-17T09:33:41;19.00;99.90
6114;DHT22;3087;48.392;10.836;2022-10-17T09:36:19;19.30;99.90
6114;DHT22;3087;48.392;10.836;2022-10-17T09:38:54;20.00;99.90
6114;DHT22;3087;48.392;10.836;2022-10-17T09:41:22;20.70;99.90
6114;DHT22;3087;48.392;10.836;2022-10-17T09:43:52;21.20;99.90
6114;DHT22;3087;48.392;10.836;2022-10-17T09:46:33;21.70;99.90
6114;DHT22;3087;48.392;10.836;2022-10-17T09:49:13;22.10;99.90
6114;DHT22;3087;48.392;10.836;2022-10-17T09:51:40;22.50;99.90
6114;DHT22;3087;48.392;10.836;2022-10-17T09:54:25;22.80;99.90
6114;DHT22;3087;48.392;10.836;2022-10-17T09:57:03;23.20;99.90
6114;DHT22;3087;48.392;10.836;2022-10-17T09:59:41;23.50;99.90
6114;DHT22;3087;48.392;10.836;2022-10-17T10:07:19;24.70;99.90
6114;DHT22;3087;48.392;10.836;2022-10-17T10:09:49;25.00;99.90
6114;DHT22;3087;48.392;10.836;2022-10-17T10:14:46;25.50;99.90
6114;DHT22;3087;48.392;10.836;2022-10-17T10:17:44;25.80;99.90
6114;DHT22;3087;48.392;10.836;2022-10-17T10:20:30;26.00;99.90
6114;DHT22;3087;48.392;10.836;2022-10-17T10:23:15;26.20;99.90
6114;DHT22;3087;48.392;10.836;2022-10-17T10:25:52;26.40;99.90
6114;DHT22;3087;48.392;10.836;2022-10-17T10:28:19;26.90;99.90
6114;DHT22;3087;48.392;10.836;2022-10-17T10:30:50;27.00;99.90
6114;DHT22;3087;48.392;10.836;2022-10-17T10:33:21;27.20;99.90
6114;DHT22;3087;48.392;10.836;2022-10-17T10:35:59;27.30;99.90
6114;DHT22;3087;48.392;10.836;2022-10-17T10:38:30;27.60;99.90
6114;DHT22;3087;48.392;10.836;2022-10-17T10:41:10;27.70;99.90
6114;DHT22;3087;48.392;10.836;2022-10-17T10:43:42;27.70;99.90
6114;DHT22;3087;48.392;10.836;2022-10-17T10:46:27;28.00;99.90
6114;DHT22;3087;48.392;10.836;2022-10-17T10:48:55;28.40;99.90
6114;DHT22;3087;48.392;10.836;2022-10-17T10:51:37;28.50;99.90
6114;DHT22;3087;48.392;10.836;2022-10-17T10:54:07;28.50;99.90
6114;DHT22;3087;48.392;10.836;2022-10-17T10:56:40;28.80;99.90
6114;DHT22;3087;48.392;10.836;2022-10-17T11:01:49;29.50;99.90
6114;DHT22;3087;48.392;10.836;2022-10-17T11:07:22;29.90;99.90
6114;DHT22;3087;48.392;10.836;2022-10-17T11:10:07;29.80;99.90
6114;DHT22;3087;48.392;10.836;2022-10-17T11:12:40;29.60;99.90
6114;DHT22;3087;48.392;10.836;2022-10-17T11:26:05;29.80;99.90
6114;DHT22;3087;48.392;10.836;2022-10-17T11:28:31;29.90;99.90
6114;DHT22;3087;48.392;10.836;2022-10-17T11:31:09;30.00;99.90
6114;DHT22;3087;48.392;10.836;2022-10-17T11:33:45;30.10;99.90
6114;DHT22;3087;48.392;10.836;2022-10-17T11:36:11;30.40;99.60
6114;DHT22;3087;48.392;10.836;2022-10-17T11:39:43;30.60;99.00
6114;DHT22;3087;48.392;10.836;2022-10-17T11:41:55;30.70;98.70
6114;DHT22;3087;48.392;10.836;2022-10-17T11:55:04;30.20;99.90
6114;DHT22;3087;48.392;10.836;2022-10-17T12:06:47;30.30;99.80
6114;DHT22;3087;48.392;10.836;2022-10-17T12:09:28;30.20;99.90
6114;DHT22;3087;48.392;10.836;2022-10-17T12:12:04;29.90;99.10
6114;DHT22;3087;48.392;10.836;2022-10-17T12:14:42;29.60;99.00
6114;DHT22;3087;48.392;10.836;2022-10-17T12:17:34;29.70;99.30
6114;DHT22;3087;48.392;10.836;2022-10-17T12:20:24;30.00;99.70
6114;DHT22;3087;48.392;10.836;2022-10-17T12:25:36;30.30;98.80
6114;DHT22;3087;48.392;10.836;2022-10-17T12:30:58;30.10;99.20
6114;DHT22;3087;48.392;10.836;2022-10-17T12:33:32;30.10;99.20
6114;DHT22;3087;48.392;10.836;2022-10-17T12:38:49;30.40;99.90
6114;DHT22;3087;48.392;10.836;2022-10-17T12:41:16;30.40;99.60
6114;DHT22;3087;48.392;10.836;2022-10-17T12:44:05;30.40;99.90
6114;DHT22;3087;48.392;10.836;2022-10-17T12:49:46;30.50;99.90
6114;DHT22;3087;48.392;10.836;2022-10-17T13:00:45;29.80;99.60
6114;DHT22;3087;48.392;10.836;2022-10-17T13:03:17;29.80;99.90
6114;DHT22;3087;48.392;10.836;2022-10-17T13:05:48;29.90;99.90
6114;DHT22;3087;48.392;10.836;2022-10-17T13:08:18;29.80;99.80
6114;DHT22;3087;48.392;10.836;2022-10-17T13:10:47;29.70;99.90
6114;DHT22;3087;48.392;10.836;2022-10-17T13:13:32;29.50;99.90
6114;DHT22;3087;48.392;10.836;2022-10-17T13:16:00;28.90;99.90
6114;DHT22;3087;48.392;10.836;2022-10-17T13:18:28;28.60;99.90
6114;DHT22;3087;48.392;10.836;2022-10-17T13:23:36;28.00;99.90
6114;DHT22;3087;48.392;10.836;2022-10-17T13:31:02;27.70;99.90
6114;DHT22;3087;48.392;10.836;2022-10-17T13:33:38;27.50;99.90
6114;DHT22;3087;48.392;10.836;2022-10-17T13:36:13;27.30;99.90
6114;DHT22;3087;48.392;10.836;2022-10-17T13:41:11;27.20;99.90
6114;DHT22;3087;48.392;10.836;2022-10-17T13:43:38;27.30;99.90
6114;DHT22;3087;48.392;10.836;2022-10-17T13:46:05;27.30;99.90
6114;DHT22;3087;48.392;10.836;2022-10-17T13:48:35;27.30;99.90
6114;DHT22;3087;48.392;10.836;2022-10-17T13:51:03;27.30;99.90
6114;DHT22;3087;48.392;10.836;2022-10-17T13:53:33;27.20;99.90
6114;DHT22;3087;48.392;10.836;2022-10-17T13:56:06;27.20;99.90
6114;DHT22;3087;48.392;10.836;2022-10-17T13:58:48;27.10;99.90
6114;DHT22;3087;48.392;10.836;2022-10-17T14:01:14;26.90;99.90
6114;DHT22;3087;48.392;10.836;2022-10-17T14:03:44;26.60;99.90
6114;DHT22;3087;48.392;10.836;2022-10-17T14:06:23;26.50;99.90
6114;DHT22;3087;48.392;10.836;2022-10-17T14:09:03;26.30;99.90
6114;DHT22;3087;48.392;10.836;2022-10-17T14:11:35;26.10;99.90
6114;DHT22;3087;48.392;10.836;2022-10-17T14:14:04;25.90;99.90
6114;DHT22;3087;48.392;10.836;2022-10-17T14:16:39;25.70;99.90
6114;DHT22;3087;48.392;10.836;2022-10-17T14:21:40;25.40;99.90
6114;DHT22;3087;48.392;10.836;2022-10-17T14:24:35;25.30;99.90
6114;DHT22;3087;48.392;10.836;2022-10-17T14:27:01;25.20;99.90
6114;DHT22;3087;48.392;10.836;2022-10-17T14:29:29;25.10;99.90
6114;DHT22;3087;48.392;10.836;2022-10-17T14:32:00;24.90;99.90
6114;DHT22;3087;48.392;10.836;2022-10-17T14:34:31;24.80;99.90
6114;DHT22;3087;48.392;10.836;2022-10-17T14:36:57;24.80;99.90
6114;DHT22;3087;48.392;10.836;2022-10-17T14:39:25;24.70;99.90
6114;DHT22;3087;48.392;10.836;2022-10-17T14:41:51;24.70;99.90
6114;DHT22;3087;48.392;10.836;2022-10-17T14:46:53;24.80;99.90
6114;DHT22;3087;48.392;10.836;2022-10-17T14:49:25;24.80;99.90
6114;DHT22;3087;48.392;10.836;2022-10-17T14:54:43;24.60;99.90
6114;DHT22;3087;48.392;10.836;2022-10-17T14:59:57;24.60;99.90
6114;DHT22;3087;48.392;10.836;2022-10-17T15:02:28;24.40;99.90
6114;DHT22;3087;48.392;10.836;2022-10-17T15:04:54;24.30;99.90
6114;DHT22;3087;48.392;10.836;2022-10-17T15:07:20;24.10;99.90
6114;DHT22;3087;48.392;10.836;2022-10-17T15:09:49;24.10;99.90
6114;DHT22;3087;48.392;10.836;2022-10-17T15:12:17;24.00;99.90
6114;DHT22;3087;48.392;10.836;2022-10-17T15:14:44;24.10;99.90
6114;DHT22;3087;48.392;10.836;2022-10-17T15:17:14;24.10;99.90
6114;DHT22;3087;48.392;10.836;2022-10-17T15:19:40;24.10;99.90
6114;DHT22;3087;48.392;10.836;2022-10-17T15:22:06;24.00;99.90
6114;DHT22;3087;48.392;10.836;2022-10-17T15:31:50;24.10;99.90
6114;DHT22;3087;48.392;10.836;2022-10-17T15:34:15;24.10;99.90
6114;DHT22;3087;48.392;10.836;2022-10-17T15:36:47;24.10;99.90
6114;DHT22;3087;48.392;10.836;2022-10-17T15:39:13;24.00;99.90
6114;DHT22;3087;48.392;10.836;2022-10-17T15:46:34;24.00;99.90
6114;DHT22;3087;48.392;10.836;2022-10-17T15:49:02;24.00;99.90
6114;DHT22;3087;48.392;10.836;2022-10-17T15:53:54;23.90;99.90
6114;DHT22;3087;48.392;10.836;2022-10-17T15:56:39;23.80;99.90
6114;DHT22;3087;48.392;10.836;2022-10-17T15:59:18;23.80;99.90
6114;DHT22;3087;48.392;10.836;2022-10-17T16:01:44;23.70;99.90
6114;DHT22;3087;48.392;10.836;2022-10-17T16:04:13;23.70;99.90
6114;DHT22;3087;48.392;10.836;2022-10-17T16:06:41;23.70;99.90
6114;DHT22;3087;48.392;10.836;2022-10-17T16:09:07;23.60;99.90
6114;DHT22;3087;48.392;10.836;2022-10-17T16:11:39;23.60;99.90
6114;DHT22;3087;48.392;10.836;2022-10-17T16:14:08;23.60;99.90
6114;DHT22;3087;48.392;10.836;2022-10-17T16:16:34;23.50;99.90
6114;DHT22;3087;48.392;10.836;2022-10-17T16:19:00;23.40;99.90
6114;DHT22;3087;48.392;10.836;2022-10-17T16:21:28;23.40;99.90
6114;DHT22;3087;48.392;10.836;2022-10-17T16:31:24;23.10;99.90
6114;DHT22;3087;48.392;10.836;2022-10-17T16:33:52;22.90;99.90
6114;DHT22;3087;48.392;10.836;2022-10-17T16:36:18;22.60;99.90
6114;DHT22;3087;48.392;10.836;2022-10-17T16:38:44;22.50;99.90
6114;DHT22;3087;48.392;10.836;2022-10-17T16:41:23;22.30;99.90
6114;DHT22;3087;48.392;10.836;2022-10-17T16:43:51;22.20;99.90
6114;DHT22;3087;48.392;10.836;2022-10-17T16:46:17;22.00;99.90
6114;DHT22;3087;48.392;10.836;2022-10-17T16:48:44;21.80;99.90
6114;DHT22;3087;48.392;10.836;2022-10-17T16:51:10;21.60;99.90
6114;DHT22;3087;48.392;10.836;2022-10-17T16:53:36;21.40;99.90
6114;DHT22;3087;48.392;10.836;2022-10-17T16:56:05;21.40;99.90
6114;DHT22;3087;48.392;10.836;2022-10-17T16:58:32;21.30;99.90
6114;DHT22;3087;48.392;10.836;2022-10-17T17:01:06;21.20;99.90
6114;DHT22;3087;48.392;10.836;2022-10-17T17:03:36;21.10;99.90
6114;DHT22;3087;48.392;10.836;2022-10-17T17:06:03;21.00;99.90
6114;DHT22;3087;48.392;10.836;2022-10-17T17:08:29;21.00;99.90
6114;DHT22;3087;48.392;10.836;2022-10-17T17:10:55;21.00;99.90
6114;DHT22;3087;48.392;10.836;2022-10-17T17:23:10;20.70;99.90
6114;DHT22;3087;48.392;10.836;2022-10-17T17:25:36;20.60;99.90
6114;DHT22;3087;48.392;10.836;2022-10-17T17:28:04;20.60;99.90
6114;DHT22;3087;48.392;10.836;2022-10-17T17:30:33;20.70;99.90
6114;DHT22;3087;48.392;10.836;2022-10-17T17:32:59;20.60;99.90
6114;DHT22;3087;48.392;10.836;2022-10-17T17:35:31;20.60;99.90
6114;DHT22;3087;48.392;10.836;2022-10-17T17:57:24;20.40;99.90
6114;DHT22;3087;48.392;10.836;2022-10-17T18:02:16;20.40;99.90
6114;DHT22;3087;48.392;10.836;2022-10-17T18:04:42;20.30;99.90
6114;DHT22;3087;48.392;10.836;2022-10-17T18:07:08;20.30;99.90
6114;DHT22;3087;48.392;10.836;2022-10-17T18:11:59;20.10;99.90
6114;DHT22;3087;48.392;10.836;2022-10-17T18:14:25;20.10;99.90
6114;DHT22;3087;48.392;10.836;2022-10-17T18:19:16;19.90;99.90
6114;DHT22;3087;48.392;10.836;2022-10-17T18:21:42;19.80;99.90
6114;DHT22;3087;48.392;10.836;2022-10-17T18:24:08;19.70;99.90
6114;DHT22;3087;48.392;10.836;2022-10-17T18:29:01;19.50;99.90
6114;DHT22;3087;48.392;10.836;2022-10-17T18:33:57;19.50;99.90
6114;DHT22;3087;48.392;10.836;2022-10-17T18:36:25;19.60;99.90
6114;DHT22;3087;48.392;10.836;2022-10-17T18:38:52;19.60;99.90
6114;DHT22;3087;48.392;10.836;2022-10-17T18:41:21;19.60;99.90
6114;DHT22;3087;48.392;10.836;2022-10-17T18:43:48;19.60;99.90
6114;DHT22;3087;48.392;10.836;2022-10-17T18:46:25;19.60;99.90
6114;DHT22;3087;48.392;10.836;2022-10-17T18:51:24;19.50;99.90
6114;DHT22;3087;48.392;10.836;2022-10-17T18:53:52;19.50;99.90
6114;DHT22;3087;48.392;10.836;2022-10-17T18:56:19;19.50;99.90
6114;DHT22;3087;48.392;10.836;2022-10-17T18:58:45;19.50;99.90
6114;DHT22;3087;48.392;10.836;2022-10-17T19:01:13;19.50;99.90
6114;DHT22;3087;48.392;10.836;2022-10-17T19:03:43;19.40;99.90
6114;DHT22;3087;48.392;10.836;2022-10-17T19:06:11;19.40;99.90
6114;DHT22;3087;48.392;10.836;2022-10-17T19:08:37;19.40;99.90
6114;DHT22;3087;48.392;10.836;2022-10-17T19:11:15;19.30;99.90
6114;DHT22;3087;48.392;10.836;2022-10-17T19:13:41;19.30;99.90
6114;DHT22;3087;48.392;10.836;2022-10-17T19:16:09;19.20;99.90
6114;DHT22;3087;48.392;10.836;2022-10-17T19:18:36;19.20;99.90
6114;DHT22;3087;48.392;10.836;2022-10-17T19:21:07;19.20;99.90
6114;DHT22;3087;48.392;10.836;2022-10-17T19:23:34;19.10;99.90
6114;DHT22;3087;48.392;10.836;2022-10-17T19:26:02;19.10;99.90
6114;DHT22;3087;48.392;10.836;2022-10-17T19:28:28;18.90;99.90
6114;DHT22;3087;48.392;10.836;2022-10-17T19:33:19;18.40;99.90
6114;DHT22;3087;48.392;10.836;2022-10-17T19:35:57;18.40;99.90
6114;DHT22;3087;48.392;10.836;2022-10-17T19:38:23;18.40;99.90
6114;DHT22;3087;48.392;10.836;2022-10-17T19:43:15;18.50;99.90
6114;DHT22;3087;48.392;10.836;2022-10-17T19:55:25;18.20;99.90
6114;DHT22;3087;48.392;10.836;2022-10-17T19:57:51;18.20;99.90
6114;DHT22;3087;48.392;10.836;2022-10-17T20:00:16;18.30;99.90
6114;DHT22;3087;48.392;10.836;2022-10-17T20:05:08;18.30;99.90
6114;DHT22;3087;48.392;10.836;2022-10-17T20:07:38;18.40;99.90
6114;DHT22;3087;48.392;10.836;2022-10-17T20:10:04;18.40;99.90
6114;DHT22;3087;48.392;10.836;2022-10-17T20:12:30;18.40;99.90
6114;DHT22;3087;48.392;10.836;2022-10-17T20:17:22;18.30;99.90
6114;DHT22;3087;48.392;10.836;2022-10-17T20:19:48;18.20;99.90
6114;DHT22;3087;48.392;10.836;2022-10-17T20:22:14;18.00;99.90
6114;DHT22;3087;48.392;10.836;2022-10-17T20:24:40;18.00;99.90
6114;DHT22;3087;48.392;10.836;2022-10-17T20:27:06;18.00;99.90
6114;DHT22;3087;48.392;10.836;2022-10-17T20:31:57;17.90;99.90
6114;DHT22;3087;48.392;10.836;2022-10-17T20:39:17;18.10;99.90
6114;DHT22;3087;48.392;10.836;2022-10-17T20:41:43;18.10;99.90
6114;DHT22;3087;48.392;10.836;2022-10-17T20:44:10;18.20;99.90
6114;DHT22;3087;48.392;10.836;2022-10-17T20:46:36;18.20;99.90
6114;DHT22;3087;48.392;10.836;2022-10-17T20:49:04;18.10;99.90
6114;DHT22;3087;48.392;10.836;2022-10-17T20:51:30;18.10;99.90
6114;DHT22;3087;48.392;10.836;2022-10-17T20:53:56;18.10;99.90
6114;DHT22;3087;48.392;10.836;2022-10-17T20:56:25;18.10;99.90
6114;DHT22;3087;48.392;10.836;2022-10-17T20:58:57;18.10;99.90
6114;DHT22;3087;48.392;10.836;2022-10-17T21:01:24;18.10;99.90
6114;DHT22;3087;48.392;10.836;2022-10-17T21:06:17;18.00;99.90
6114;DHT22;3087;48.392;10.836;2022-10-17T21:08:43;17.80;99.90
6114;DHT22;3087;48.392;10.836;2022-10-17T21:11:12;17.70;99.90
6114;DHT22;3087;48.392;10.836;2022-10-17T21:13:38;17.60;99.90
6114;DHT22;3087;48.392;10.836;2022-10-17T21:16:16;17.40;99.90
6114;DHT22;3087;48.392;10.836;2022-10-17T21:18:42;17.30;99.90
6114;DHT22;3087;48.392;10.836;2022-10-17T21:21:19;17.30;99.90
6114;DHT22;3087;48.392;10.836;2022-10-17T21:23:47;17.40;99.90
6114;DHT22;3087;48.392;10.836;2022-10-17T21:26:14;17.40;99.90
6114;DHT22;3087;48.392;10.836;2022-10-17T21:28:41;17.40;99.90
6114;DHT22;3087;48.392;10.836;2022-10-17T21:31:20;17.40;99.90
6114;DHT22;3087;48.392;10.836;2022-10-17T21:33:54;17.40;99.90
6114;DHT22;3087;48.392;10.836;2022-10-17T21:36:21;17.40;99.90
6114;DHT22;3087;48.392;10.836;2022-10-17T21:38:48;17.40;99.90
6114;DHT22;3087;48.392;10.836;2022-10-17T21:41:16;17.40;99.90
6114;DHT22;3087;48.392;10.836;2022-10-17T21:43:42;17.40;99.90
6114;DHT22;3087;48.392;10.836;2022-10-17T21:46:11;17.40;99.90
6114;DHT22;3087;48.392;10.836;2022-10-17T21:48:37;17.40;99.90
6114;DHT22;3087;48.392;10.836;2022-10-17T21:51:05;17.40;99.90
6114;DHT22;3087;48.392;10.836;2022-10-17T21:53:31;17.40;99.90
6114;DHT22;3087;48.392;10.836;2022-10-17T21:55:58;17.40;99.90